Time;durP1;ratioP1;P1;durP2;ratioP2;P2;SDS_P1;SDS_P2;PMS_P1;PMS_P2;Temp;Humidity;BMP_temperature;BMP_pressure;BME280_temperature;BME280_humidity;BME280_pressure;Samples;Min_cycle;Max_cycle;Signal;HPM_P1;HPM_P2
2024/01/05 00:01:11;;;;;;;12.05;6.78;;;3.40;99.90;;;;;;5070941;28;20048;-74
2024/01/05 00:03:37;;;;;;;;;;;3.40;99.90;;;;;;5071559;28;20061;-75
2024/01/05 00:06:07;;;;;;;12.95;7.03;;;3.30;99.90;;;;;;5070698;28;19983;-72
2024/01/05 00:08:35;;;;;;;17.02;7.03;;;3.30;99.90;;;;;;5071273;28;20056;-72
2024/01/05 00:11:01;;;;;;;13.45;6.63;;;4.70;99.90;;;;;;5070544;28;20540;-72
2024/01/05 00:13:27;;;;;;;16.25;6.07;;;4.00;99.90;;;;;;5071160;28;20045;-74
2024/01/05 00:15:52;;;;;;;;;;;3.40;99.90;;;;;;5070814;28;20124;-74
2024/01/05 00:18:21;;;;;;;15.65;8.18;;;3.40;99.90;;;;;;5071540;28;20885;-73
2024/01/05 00:20:46;;;;;;;17.40;7.75;;;3.40;99.90;;;;;;5070006;28;20040;-74
2024/01/05 00:23:12;;;;;;;13.93;7.38;;;3.30;99.90;;;;;;5069721;28;20036;-77
2024/01/05 00:25:38;;;;;;;;;;;3.30;99.90;;;;;;5071237;28;20560;-74
2024/01/05 00:28:03;;;;;;;14.82;8.38;;;3.60;99.90;;;;;;5070596;28;19920;-76
2024/01/05 00:30:29;;;;;;;16.55;8.75;;;3.20;99.90;;;;;;5070136;28;20345;-73
2024/01/05 00:32:55;;;;;;;15.27;8.00;;;3.30;99.90;;;;;;5072480;28;20056;-72
2024/01/05 00:35:20;;;;;;;16.58;8.50;;;3.30;99.90;;;;;;5070721;28;20051;-73
2024/01/05 00:37:46;;;;;;;;;;;3.30;99.90;;;;;;5104835;28;20040;-75
2024/01/05 00:40:12;;;;;;;18.40;9.25;;;3.20;99.90;;;;;;5070440;28;19920;-75
2024/01/05 00:42:37;;;;;;;16.30;9.60;;;3.20;99.90;;;;;;5071352;28;20064;-77
2024/01/05 00:45:03;;;;;;;;;;;3.20;99.90;;;;;;5070322;28;20044;-77
2024/01/05 00:47:29;;;;;;;15.75;8.55;;;3.20;99.90;;;;;;5068661;28;19928;-73
2024/01/05 00:49:54;;;;;;;16.95;9.63;;;3.20;99.90;;;;;;5070164;28;20045;-78
2024/01/05 00:52:20;;;;;;;17.05;9.65;;;3.10;99.90;;;;;;5069082;28;20049;-78
2024/01/05 00:54:47;;;;;;;17.05;9.38;;;3.10;99.90;;;;;;5069327;28;20445;-81
2024/01/05 00:57:12;;;;;;;18.20;9.50;;;3.10;99.90;;;;;;5072782;28;20040;-78
2024/01/05 00:59:38;;;;;;;17.15;9.15;;;3.20;99.90;;;;;;5071896;28;20094;-75
2024/01/05 01:02:04;;;;;;;15.50;8.80;;;3.10;99.90;;;;;;5072055;28;20051;-75
2024/01/05 01:04:29;;;;;;;;;;;3.10;99.90;;;;;;5073695;28;20117;-75
2024/01/05 01:06:55;;;;;;;24.08;10.57;;;3.30;99.90;;;;;;5072702;28;20003;-77
2024/01/05 01:09:20;;;;;;;20.95;10.32;;;3.10;99.90;;;;;;5072535;28;20127;-79
2024/01/05 01:11:48;;;;;;;;;;;3.10;99.90;;;;;;5072507;28;20399;-81
2024/01/05 01:14:14;;;;;;;16.42;9.70;;;3.10;99.90;;;;;;5073531;28;19924;-79
2024/01/05 01:16:39;;;;;;;24.38;10.98;;;3.20;99.90;;;;;;5074402;28;20045;-77
2024/01/05 01:19:05;;;;;;;21.40;10.40;;;3.20;99.90;;;;;;5073942;28;20131;-77
2024/01/05 01:21:31;;;;;;;;;;;3.20;99.90;;;;;;5074551;28;20040;-78
2024/01/05 01:23:56;;;;;;;21.00;11.15;;;3.10;99.90;;;;;;5074309;28;19920;-82
2024/01/05 01:26:22;;;;;;;20.42;10.90;;;3.10;99.90;;;;;;5073513;28;20045;-81
2024/01/05 01:28:48;;;;;;;;;;;3.30;99.90;;;;;;5074359;28;20083;-81
2024/01/05 01:31:13;;;;;;;20.63;10.87;;;3.40;99.90;;;;;;5073453;28;20019;-81
2024/01/05 01:33:39;;;;;;;;;;;3.90;99.90;;;;;;5073687;28;20171;-81
2024/01/05 01:36:06;;;;;;;21.60;11.35;;;3.10;99.90;;;;;;5073930;28;19928;-79
2024/01/05 01:38:31;;;;;;;22.70;11.65;;;3.10;99.90;;;;;;5074012;28;20056;-79
2024/01/05 01:40:57;;;;;;;22.40;11.55;;;3.10;99.90;;;;;;5075099;28;20067;-82
2024/01/05 01:43:25;;;;;;;22.65;11.70;;;3.10;99.90;;;;;;5073537;28;20385;-78
2024/01/05 01:45:53;;;;;;;23.75;11.32;;;3.10;99.90;;;;;;5074340;28;20121;-78
2024/01/05 01:48:20;;;;;;;19.10;10.85;;;3.10;99.90;;;;;;5072989;28;20064;-77
2024/01/05 01:50:47;;;;;;;20.13;11.57;;;3.10;99.90;;;;;;5074734;28;20068;-78
2024/01/05 01:53:16;;;;;;;22.05;10.85;;;3.10;99.90;;;;;;5073279;28;20052;-77
2024/01/05 01:55:42;;;;;;;18.67;11.32;;;3.10;99.90;;;;;;5073070;28;20055;-77
2024/01/05 01:58:09;;;;;;;17.55;10.30;;;3.10;99.90;;;;;;5072815;28;20048;-77
2024/01/05 02:00:34;;;;;;;19.20;11.05;;;3.20;99.90;;;;;;5074402;28;20036;-77
2024/01/05 02:03:04;;;;;;;16.02;10.02;;;3.20;99.90;;;;;;5072872;28;20059;-80
2024/01/05 02:05:29;;;;;;;17.38;11.13;;;3.20;99.90;;;;;;5073419;28;20495;-79
2024/01/05 02:07:58;;;;;;;18.58;9.65;;;3.20;99.90;;;;;;5072905;28;20127;-79
2024/01/05 02:10:24;;;;;;;21.65;11.13;;;3.20;99.90;;;;;;5072161;28;20047;-77
2024/01/05 02:12:50;;;;;;;18.73;11.30;;;3.20;99.90;;;;;;5072777;28;20048;-79
2024/01/05 02:15:17;;;;;;;15.55;10.38;;;3.20;99.90;;;;;;5071592;28;20429;-77
2024/01/05 02:17:43;;;;;;;16.77;9.57;;;3.10;99.90;;;;;;5073149;28;20052;-79
2024/01/05 02:20:08;;;;;;;18.98;10.90;;;3.20;99.90;;;;;;5073026;28;20048;-77
2024/01/05 02:22:34;;;;;;;;;;;3.10;99.90;;;;;;5073364;28;20053;-76
2024/01/05 02:25:01;;;;;;;18.65;10.23;;;3.20;99.90;;;;;;5073199;28;19927;-76
2024/01/05 02:27:27;;;;;;;18.15;10.93;;;3.20;99.90;;;;;;5072633;28;20040;-77
2024/01/05 02:29:53;;;;;;;21.20;11.95;;;3.20;99.90;;;;;;5072027;28;20044;-77
2024/01/05 02:32:19;;;;;;;19.85;11.43;;;3.20;99.90;;;;;;5072303;28;20041;-77
2024/01/05 02:34:45;;;;;;;18.58;10.43;;;3.20;99.90;;;;;;5072590;28;20048;-77
2024/01/05 02:37:10;;;;;;;18.08;10.15;;;3.10;99.90;;;;;;5072322;28;20044;-77
2024/01/05 02:39:36;;;;;;;17.45;9.82;;;3.10;99.90;;;;;;5072602;28;20063;-77
2024/01/05 02:42:02;;;;;;;21.58;11.07;;;3.10;99.90;;;;;;5072792;28;20127;-80
2024/01/05 02:44:28;;;;;;;20.20;11.13;;;3.10;99.90;;;;;;5072928;28;20105;-80
2024/01/05 02:46:53;;;;;;;;;;;3.10;99.90;;;;;;5073604;28;20040;-79
2024/01/05 02:49:19;;;;;;;19.02;10.88;;;3.00;99.90;;;;;;5073418;28;19928;-80
2024/01/05 02:51:44;;;;;;;21.48;11.20;;;3.00;99.90;;;;;;5073875;28;20051;-80
2024/01/05 02:54:10;;;;;;;19.40;10.98;;;3.00;99.90;;;;;;5072460;28;20054;-80
2024/01/05 02:56:36;;;;;;;20.75;10.00;;;3.00;99.90;;;;;;5073642;28;20135;-80
2024/01/05 02:59:04;;;;;;;19.25;11.40;;;3.00;99.90;;;;;;5071287;28;20048;-81
2024/01/05 03:01:30;;;;;;;18.42;11.05;;;3.00;99.90;;;;;;5072497;28;20029;-81
2024/01/05 03:03:57;;;;;;;19.65;10.70;;;3.10;99.90;;;;;;5073206;28;20449;-81
2024/01/05 03:06:23;;;;;;;17.92;10.60;;;3.00;99.90;;;;;;5071297;28;20119;-81
2024/01/05 03:08:48;;;;;;;18.38;10.30;;;3.10;99.90;;;;;;5072440;28;20139;-80
2024/01/05 03:11:14;;;;;;;18.45;10.23;;;3.00;99.90;;;;;;5072297;28;20036;-85
2024/01/05 03:13:39;;;;;;;;;;;3.00;99.90;;;;;;5071786;28;20088;-79
2024/01/05 03:16:05;;;;;;;18.05;10.02;;;3.00;99.90;;;;;;5072051;28;19994;-79
2024/01/05 03:18:31;;;;;;;17.38;9.43;;;3.00;99.90;;;;;;5071246;28;20040;-79
2024/01/05 03:20:56;;;;;;;;;;;3.00;99.90;;;;;;5072148;28;20045;-77
2024/01/05 03:23:22;;;;;;;17.70;9.35;;;3.10;99.90;;;;;;5071297;28;19993;-82
2024/01/05 03:25:48;;;;;;;17.95;9.63;;;3.00;99.90;;;;;;5071280;28;20040;-78
2024/01/05 03:28:14;;;;;;;17.13;9.50;;;3.00;99.90;;;;;;5070356;28;20040;-78
2024/01/05 03:30:41;;;;;;;17.65;9.05;;;3.00;99.90;;;;;;5072024;28;20055;-77
2024/01/05 03:33:07;;;;;;;17.45;8.90;;;3.00;99.90;;;;;;5070581;28;20066;-77
2024/01/05 03:35:33;;;;;;;16.70;9.68;;;3.00;99.90;;;;;;5070223;28;20473;-74
2024/01/05 03:37:59;;;;;;;20.02;9.98;;;3.50;99.90;;;;;;5071537;28;20442;-75
2024/01/05 03:40:24;;;;;;;17.15;9.18;;;3.00;99.90;;;;;;5071639;28;20072;-73
2024/01/05 03:42:50;;;;;;;;;;;3.00;99.90;;;;;;5072161;28;20050;-74
2024/01/05 03:45:18;;;;;;;15.90;8.40;;;2.90;99.90;;;;;;5071518;28;19917;-74
2024/01/05 03:47:44;;;;;;;16.15;9.45;;;2.90;99.90;;;;;;5070875;28;20135;-74
2024/01/05 03:50:09;;;;;;;18.85;10.00;;;2.90;99.90;;;;;;5070894;28;20087;-74
2024/01/05 03:52:36;;;;;;;16.90;9.52;;;2.90;99.90;;;;;;5071402;28;20087;-74
2024/01/05 03:55:01;;;;;;;17.45;10.32;;;2.90;99.90;;;;;;5071512;28;20047;-75
2024/01/05 03:57:28;;;;;;;21.27;10.93;;;2.90;99.90;;;;;;5072386;28;20040;-75
2024/01/05 03:59:53;;;;;;;19.17;9.48;;;2.90;99.90;;;;;;5072938;28;20448;-75
2024/01/05 04:02:19;;;;;;;17.90;9.48;;;2.90;99.90;;;;;;5071941;28;20040;-75
2024/01/05 04:04:45;;;;;;;17.25;9.73;;;2.90;99.90;;;;;;5070949;28;20404;-79
2024/01/05 04:07:10;;;;;;;18.85;9.20;;;2.90;99.90;;;;;;5071198;28;20044;-78
2024/01/05 04:09:36;;;;;;;16.63;8.93;;;2.90;99.90;;;;;;5071164;28;20052;-78
2024/01/05 04:12:02;;;;;;;17.70;9.38;;;2.90;99.90;;;;;;5071098;28;20087;-78
2024/01/05 04:14:28;;;;;;;18.58;9.57;;;2.90;99.90;;;;;;5072456;28;20056;-78
2024/01/05 04:16:54;;;;;;;20.42;9.07;;;2.90;99.90;;;;;;5070854;28;20048;-76
2024/01/05 04:19:19;;;;;;;20.30;9.30;;;2.90;99.90;;;;;;5071863;28;20373;-75
2024/01/05 04:21:45;;;;;;;17.58;9.35;;;4.30;99.90;;;;;;5071207;28;20119;-78
2024/01/05 04:24:11;;;;;;;17.50;9.00;;;2.90;99.90;;;;;;5070688;28;20063;-78
2024/01/05 04:26:36;;;;;;;16.48;9.25;;;2.90;99.90;;;;;;5054327;28;20040;-79
2024/01/05 04:29:02;;;;;;;;;;;2.90;99.90;;;;;;5071209;28;20046;-79
2024/01/05 04:31:28;;;;;;;16.10;8.40;;;2.90;99.90;;;;;;5070655;28;20003;-76
2024/01/05 04:33:54;;;;;;;15.32;7.25;;;2.90;99.90;;;;;;5070754;28;20499;-76
2024/01/05 04:36:20;;;;;;;17.35;8.40;;;2.90;99.90;;;;;;5070515;28;20044;-76
2024/01/05 04:38:46;;;;;;;13.55;7.43;;;3.00;99.90;;;;;;5070999;28;20113;-75
2024/01/05 04:41:13;;;;;;;17.77;8.07;;;3.00;99.90;;;;;;5070434;28;20040;-74
2024/01/05 04:43:39;;;;;;;14.50;7.68;;;3.00;99.90;;;;;;5072056;28;20399;-74
2024/01/05 04:46:05;;;;;;;13.15;8.20;;;4.30;99.90;;;;;;5071973;28;20040;-75
2024/01/05 04:48:31;;;;;;;16.00;7.75;;;2.90;99.90;;;;;;5070338;28;20102;-75
2024/01/05 04:50:57;;;;;;;14.50;7.65;;;3.00;99.90;;;;;;5069611;28;20478;-75
2024/01/05 04:53:22;;;;;;;14.80;7.55;;;3.00;99.90;;;;;;5070937;28;20044;-77
2024/01/05 04:55:48;;;;;;;17.88;8.40;;;3.00;99.90;;;;;;5071006;28;20572;-76
2024/01/05 04:58:13;;;;;;;14.35;7.78;;;2.90;99.90;;;;;;5070039;28;20480;-76
2024/01/05 05:00:39;;;;;;;;;;;2.90;99.90;;;;;;5104669;28;20090;-78
2024/01/05 05:03:05;;;;;;;15.30;7.90;;;2.90;99.90;;;;;;5070578;28;20273;-78
2024/01/05 05:05:31;;;;;;;15.80;7.80;;;2.90;99.90;;;;;;5070339;28;20033;-78
2024/01/05 05:07:57;;;;;;;14.68;7.82;;;2.90;99.90;;;;;;5070193;28;20562;-77
2024/01/05 05:10:23;;;;;;;16.90;8.23;;;3.00;99.90;;;;;;5069516;28;20436;-78
2024/01/05 05:12:48;;;;;;;14.80;7.53;;;3.00;99.90;;;;;;5069692;28;20080;-78
2024/01/05 05:15:14;;;;;;;;;;;3.00;99.90;;;;;;5071113;28;20047;-82
2024/01/05 05:17:39;;;;;;;17.02;7.43;;;3.00;99.90;;;;;;5069598;28;20368;-78
2024/01/05 05:20:06;;;;;;;14.35;6.88;;;3.00;99.90;;;;;;5069668;28;20048;-79
2024/01/05 05:22:31;;;;;;;15.00;8.18;;;3.00;99.90;;;;;;5070879;28;20054;-80
2024/01/05 05:24:57;;;;;;;14.10;7.32;;;3.00;99.90;;;;;;5070856;28;20037;-79
2024/01/05 05:27:23;;;;;;;12.10;6.30;;;3.00;99.90;;;;;;5069142;28;20125;-78
2024/01/05 05:29:48;;;;;;;15.25;7.20;;;3.00;99.90;;;;;;5070113;28;20052;-78
2024/01/05 05:32:14;;;;;;;12.85;6.75;;;3.10;99.90;;;;;;5069269;28;20086;-78
2024/01/05 05:34:40;;;;;;;;;;;3.10;99.90;;;;;;5070430;28;20449;-78
2024/01/05 05:37:06;;;;;;;15.80;7.65;;;3.10;99.90;;;;;;5069746;28;20326;-77
2024/01/05 05:39:32;;;;;;;15.77;7.57;;;3.10;99.90;;;;;;5069981;28;20045;-80
2024/01/05 05:41:57;;;;;;;13.95;7.57;;;3.10;99.90;;;;;;5070263;28;20045;-80
2024/01/05 05:44:23;;;;;;;;;;;3.10;99.90;;;;;;5073738;28;20037;-80
2024/01/05 05:46:49;;;;;;;23.80;8.02;;;3.30;99.90;;;;;;5073803;28;20276;-76
2024/01/05 05:49:14;;;;;;;18.42;7.70;;;3.80;99.90;;;;;;5093194;28;20509;-77
2024/01/05 05:51:40;;;;;;;15.07;7.90;;;3.10;99.90;;;;;;5054217;28;20477;-76
2024/01/05 05:54:06;;;;;;;16.50;8.02;;;3.10;99.90;;;;;;5054418;28;20124;-76
2024/01/05 05:56:31;;;;;;;;;;;3.20;99.90;;;;;;5074244;28;20140;-78
2024/01/05 05:58:57;;;;;;;18.60;7.88;;;3.20;99.90;;;;;;5074112;28;19973;-77
2024/01/05 06:01:23;;;;;;;;;;;3.20;99.90;;;;;;5073662;28;20040;-77
2024/01/05 06:03:49;;;;;;;17.05;7.85;;;3.20;99.90;;;;;;5072863;28;20261;-76
2024/01/05 06:06:18;;;;;;;14.80;7.38;;;3.20;99.90;;;;;;5073615;28;20055;-77
2024/01/05 06:08:44;;;;;;;14.85;7.38;;;3.20;99.90;;;;;;5072929;28;20048;-78
2024/01/05 06:11:09;;;;;;;12.35;6.72;;;3.20;99.90;;;;;;5073492;28;20049;-76
2024/01/05 06:13:35;;;;;;;14.13;7.45;;;3.20;99.90;;;;;;5074065;28;20051;-76
2024/01/05 06:16:00;;;;;;;14.80;7.88;;;3.20;99.90;;;;;;5072764;28;20048;-75
2024/01/05 06:18:26;;;;;;;;;;;3.20;99.90;;;;;;5106292;28;20377;-77
2024/01/05 06:20:52;;;;;;;18.08;8.35;;;3.20;99.90;;;;;;5073486;28;19924;-77
2024/01/05 06:23:18;;;;;;;16.90;8.20;;;3.20;99.90;;;;;;5072994;28;20049;-75
2024/01/05 06:25:43;;;;;;;;;;;3.20;99.90;;;;;;5075156;28;20149;-75
2024/01/05 06:28:10;;;;;;;15.80;7.97;;;4.10;99.90;;;;;;5074182;28;19927;-75
2024/01/05 06:30:35;;;;;;;19.02;9.20;;;3.20;99.90;;;;;;5073042;28;20083;-75
2024/01/05 06:33:07;;;;;;;17.00;8.95;;;3.30;99.90;;;;;;5072645;28;20075;-74
2024/01/05 06:35:32;;;;;;;19.05;9.43;;;3.20;99.90;;;;;;5073168;28;20052;-75
2024/01/05 06:37:58;;;;;;;17.83;8.60;;;3.30;99.90;;;;;;5073218;28;20048;-73
2024/01/05 06:40:24;;;;;;;17.33;8.75;;;3.30;99.90;;;;;;5072940;28;20072;-74
2024/01/05 06:42:49;;;;;;;18.60;8.50;;;3.30;99.90;;;;;;5073809;28;20055;-74
2024/01/05 06:45:16;;;;;;;16.25;8.88;;;3.30;99.90;;;;;;5073129;28;20412;-79
2024/01/05 06:47:41;;;;;;;14.88;8.07;;;3.30;99.90;;;;;;5072682;28;20036;-79
2024/01/05 06:50:07;;;;;;;14.90;8.27;;;3.30;99.90;;;;;;5071367;28;20101;-78
2024/01/05 06:52:33;;;;;;;15.50;8.15;;;3.30;99.90;;;;;;5072834;28;20476;-78
2024/01/05 06:55:00;;;;;;;15.07;6.95;;;3.30;99.90;;;;;;5072425;28;20037;-79
2024/01/05 06:57:28;;;;;;;17.38;7.57;;;3.30;99.90;;;;;;5072607;28;20067;-79
2024/01/05 06:59:53;;;;;;;15.48;7.57;;;3.30;99.90;;;;;;5072425;28;20048;-78
2024/01/05 07:02:19;;;;;;;16.98;7.80;;;3.30;99.90;;;;;;5105732;28;20048;-77
2024/01/05 07:04:45;;;;;;;14.02;7.63;;;3.50;99.90;;;;;;5072073;28;20036;-77
2024/01/05 07:07:10;;;;;;;;;;;4.20;99.90;;;;;;5072632;28;20041;-78
2024/01/05 07:09:36;;;;;;;15.25;8.15;;;3.30;99.90;;;;;;5072538;28;19928;-78
2024/01/05 07:12:02;;;;;;;16.85;7.53;;;3.30;99.90;;;;;;5072118;28;20059;-81
2024/01/05 07:14:31;;;;;;;17.15;8.50;;;3.40;99.90;;;;;;5055044;28;20131;-80
2024/01/05 07:16:58;;;;;;;16.42;8.15;;;3.40;99.90;;;;;;5072046;28;20060;-77
2024/01/05 07:19:24;;;;;;;15.43;9.00;;;3.40;99.90;;;;;;5071569;28;20082;-77
2024/01/05 07:21:52;;;;;;;15.75;8.95;;;3.50;99.90;;;;;;5072022;28;20507;-77
2024/01/05 07:24:18;;;;;;;14.88;8.57;;;3.40;99.90;;;;;;5071738;28;20083;-79
2024/01/05 07:26:44;;;;;;;17.20;9.98;;;3.40;99.90;;;;;;5070592;28;20474;-79
2024/01/05 07:29:10;;;;;;;20.52;9.55;;;3.40;99.90;;;;;;5071263;28;20119;-78
2024/01/05 07:31:35;;;;;;;17.58;9.63;;;3.40;99.90;;;;;;5072412;28;20047;-78
2024/01/05 07:34:02;;;;;;;20.95;11.15;;;3.50;99.90;;;;;;5070914;28;20127;-78
2024/01/05 07:36:28;;;;;;;19.55;10.57;;;3.50;99.90;;;;;;5071523;28;20043;-78
2024/01/05 07:38:58;;;;;;;24.10;11.25;;;3.50;99.90;;;;;;5070809;28;20044;-79
2024/01/05 07:41:25;;;;;;;28.38;14.57;;;3.50;99.90;;;;;;5061563;28;20045;-78
2024/01/05 07:43:53;;;;;;;22.38;13.45;;;3.60;99.90;;;;;;5071853;28;20037;-78
2024/01/05 07:46:25;;;;;;;25.67;12.65;;;3.60;99.90;;;;;;5070712;28;20127;-79
2024/01/05 07:48:51;;;;;;;20.80;10.60;;;3.60;99.90;;;;;;5063102;28;20060;-79
2024/01/05 07:51:19;;;;;;;23.08;12.23;;;3.60;99.90;;;;;;5071222;28;20109;-79
2024/01/05 07:53:45;;;;;;;19.30;10.35;;;3.70;99.90;;;;;;5070709;28;20057;-78
2024/01/05 07:56:10;;;;;;;20.50;11.30;;;3.60;99.90;;;;;;5072411;28;20385;-78
2024/01/05 07:58:36;;;;;;;19.05;10.63;;;3.70;99.90;;;;;;5071327;28;20044;-82
2024/01/05 08:01:01;;;;;;;;;;;3.70;99.90;;;;;;5070683;28;20101;-81
2024/01/05 08:03:28;;;;;;;20.83;9.52;;;3.70;99.90;;;;;;5070791;28;19916;-83
2024/01/05 08:05:54;;;;;;;24.25;10.63;;;3.70;99.90;;;;;;5104825;28;20063;-84
2024/01/05 08:08:20;;;;;;;20.15;10.07;;;3.60;99.90;;;;;;5071156;28;20040;-81
2024/01/05 08:10:45;;;;;;;19.55;10.35;;;3.70;99.90;;;;;;5072582;28;20112;-81
2024/01/05 08:13:11;;;;;;;19.05;10.38;;;3.70;99.90;;;;;;5070913;28;20101;-83
2024/01/05 08:15:36;;;;;;;16.60;10.02;;;4.10;99.90;;;;;;5070991;28;20114;-79
2024/01/05 08:18:03;;;;;;;21.55;9.40;;;3.90;99.90;;;;;;5071527;28;20408;-78
2024/01/05 08:20:29;;;;;;;21.33;11.15;;;3.70;99.90;;;;;;5071223;28;20056;-77
2024/01/05 08:22:54;;;;;;;20.70;10.88;;;3.80;99.90;;;;;;5070549;28;20045;-79
2024/01/05 08:25:20;;;;;;;;;;;3.80;99.90;;;;;;5070714;28;20127;-84
2024/01/05 08:27:45;;;;;;;19.42;10.30;;;3.80;99.90;;;;;;5070718;28;20011;-82
2024/01/05 08:30:12;;;;;;;21.83;11.48;;;3.80;99.90;;;;;;5070099;28;20127;-81
2024/01/05 08:32:38;;;;;;;21.50;11.63;;;3.80;99.90;;;;;;5070825;28;20076;-79
2024/01/05 08:35:06;;;;;;;20.15;9.85;;;3.80;99.90;;;;;;5070383;28;20081;-84
2024/01/05 08:37:32;;;;;;;18.95;10.85;;;3.80;99.90;;;;;;5070162;28;20082;-78
2024/01/05 08:39:57;;;;;;;19.77;10.70;;;3.80;99.90;;;;;;5072504;28;20439;-77
2024/01/05 08:42:23;;;;;;;21.25;11.18;;;3.80;99.90;;;;;;5070089;28;20040;-72
2024/01/05 08:44:50;;;;;;;17.98;9.52;;;3.80;99.90;;;;;;5071126;28;20052;-75
2024/01/05 08:47:16;;;;;;;18.63;10.18;;;3.90;99.90;;;;;;5071139;28;20052;-74
2024/01/05 08:49:42;;;;;;;20.45;9.65;;;3.90;99.90;;;;;;5068747;28;20063;-73
2024/01/05 08:52:08;;;;;;;19.73;10.27;;;3.90;99.90;;;;;;5069191;28;20400;-74
2024/01/05 08:54:33;;;;;;;19.35;9.70;;;3.90;99.90;;;;;;5068671;28;20037;-73
2024/01/05 08:56:59;;;;;;;20.13;9.93;;;3.90;99.90;;;;;;5068157;28;20048;-72
2024/01/05 08:59:25;;;;;;;18.92;10.88;;;3.90;99.90;;;;;;5069915;28;20044;-74
2024/01/05 09:01:53;;;;;;;;;;;4.00;99.90;;;;;;5070411;28;20044;-72
2024/01/05 09:04:19;;;;;;;19.52;10.32;;;4.00;99.90;;;;;;5068155;28;19931;-73
2024/01/05 09:06:47;;;;;;;19.52;9.48;;;4.00;99.90;;;;;;5069782;28;20048;-73
2024/01/05 09:09:13;;;;;;;130.32;17.58;;;4.00;99.90;;;;;;5070640;28;20399;-73
2024/01/05 09:11:39;;;;;;;18.30;8.60;;;4.00;99.90;;;;;;5069370;28;20036;-73
2024/01/05 09:14:05;;;;;;;16.50;9.38;;;4.00;99.90;;;;;;5069188;28;20091;-75
2024/01/05 09:16:31;;;;;;;154.02;18.90;;;4.00;99.90;;;;;;5070201;28;20079;-72
2024/01/05 09:18:56;;;;;;;16.83;9.15;;;4.00;99.90;;;;;;5071170;28;20085;-74
2024/01/05 09:21:22;;;;;;;;;;;4.10;99.90;;;;;;5073856;28;20499;-74
2024/01/05 09:23:47;;;;;;;20.55;9.65;;;4.30;99.90;;;;;;5073695;28;19932;-73
2024/01/05 09:26:17;;;;;;;18.05;9.88;;;4.10;99.90;;;;;;5072729;28;20106;-73
2024/01/05 09:28:43;;;;;;;20.98;9.70;;;4.10;99.90;;;;;;5071321;28;20386;-73
2024/01/05 09:31:12;;;;;;;20.50;10.38;;;4.10;99.90;;;;;;5073698;28;20040;-75
2024/01/05 09:33:38;;;;;;;17.85;9.88;;;4.10;99.90;;;;;;5073102;28;20109;-76
2024/01/05 09:36:04;;;;;;;17.08;9.23;;;4.20;99.90;;;;;;5096237;28;20485;-76
2024/01/05 09:38:30;;;;;;;17.00;8.85;;;4.20;99.90;;;;;;5072866;28;20082;-76
2024/01/05 09:40:55;;;;;;;17.17;9.35;;;4.20;99.90;;;;;;5073594;28;20044;-77
2024/01/05 09:43:22;;;;;;;;;;;4.40;99.90;;;;;;5072585;28;20047;-79
2024/01/05 09:45:53;;;;;;;17.27;8.55;;;4.30;99.90;;;;;;5072447;28;20326;-78
2024/01/05 09:48:20;;;;;;;18.55;8.93;;;4.30;99.90;;;;;;5073689;28;20053;-77
2024/01/05 09:50:55;;;;;;;17.70;9.27;;;4.40;99.90;;;;;;5073172;28;20048;-79
2024/01/05 09:53:21;;;;;;;17.77;8.90;;;4.40;99.90;;;;;;5072771;28;20052;-82
2024/01/05 09:55:47;;;;;;;12.45;7.15;;;4.50;99.90;;;;;;5072697;28;20045;-79
2024/01/05 09:58:17;;;;;;;13.23;7.53;;;4.50;99.90;;;;;;5072570;28;20669;-79
2024/01/05 10:00:50;;;;;;;16.50;9.10;;;4.50;99.90;;;;;;5060284;28;20101;-86
2024/01/05 10:03:20;;;;;;;15.57;8.35;;;4.60;99.90;;;;;;5063065;28;20396;-84
2024/01/05 10:05:47;;;;;;;17.73;8.70;;;4.50;99.90;;;;;;5073375;28;20051;-89
2024/01/05 10:08:14;;;;;;;15.77;8.93;;;4.60;99.90;;;;;;5072330;28;20048;-86
2024/01/05 10:10:56;;;;;;;15.80;8.63;;;4.60;99.90;;;;;;5072265;28;20053;-80
2024/01/05 10:13:22;;;;;;;16.02;9.27;;;4.70;99.90;;;;;;5067935;28;20146;-84
2024/01/05 10:15:53;;;;;;;14.48;7.63;;;4.60;99.90;;;;;;5070889;28;20036;-79
2024/01/05 10:18:18;;;;;;;16.27;8.23;;;4.60;99.90;;;;;;5071647;28;20387;-81
2024/01/05 10:20:44;;;;;;;15.13;8.32;;;4.60;99.90;;;;;;5071100;28;20036;-79
2024/01/05 10:23:10;;;;;;;;;;;4.50;99.90;;;;;;5072352;28;20072;-91
2024/01/05 10:25:36;;;;;;;17.55;8.43;;;4.50;99.90;;;;;;5073134;28;19921;-76
2024/01/05 10:28:18;;;;;;;16.20;9.02;;;4.50;99.90;;;;;;5069718;28;20033;-76
2024/01/05 10:30:44;;;;;;;16.30;7.80;;;4.50;99.90;;;;;;5072142;28;20109;-75
2024/01/05 10:33:09;;;;;;;17.65;9.68;;;4.50;99.90;;;;;;5071744;28;20139;-79
2024/01/05 10:35:35;;;;;;;17.50;10.27;;;4.60;99.90;;;;;;5072354;28;20048;-81
2024/01/05 10:38:09;;;;;;;25.33;10.18;;;4.60;99.90;;;;;;5070463;28;20429;-81
2024/01/05 10:40:35;;;;;;;25.02;10.00;;;5.10;99.90;;;;;;5070785;28;20044;-89
2024/01/05 10:43:11;;;;;;;18.02;9.10;;;4.60;99.90;;;;;;5069475;28;20040;-79
2024/01/05 10:45:38;;;;;;;15.27;8.48;;;5.50;99.90;;;;;;5070735;28;20048;-81
2024/01/05 10:48:13;;;;;;;15.00;8.80;;;4.60;99.90;;;;;;5071073;28;20056;-80
2024/01/05 10:50:41;;;;;;;15.68;8.57;;;4.60;99.90;;;;;;5070886;28;20392;-79
2024/01/05 10:53:10;;;;;;;16.65;10.20;;;4.60;99.90;;;;;;5072873;28;20041;-84
2024/01/05 10:55:40;;;;;;;15.38;8.88;;;4.70;99.90;;;;;;5073180;28;20499;-79
2024/01/05 10:58:09;;;;;;;17.83;9.70;;;4.80;99.90;;;;;;5073285;28;20048;-84
2024/01/05 11:00:36;;;;;;;15.50;8.32;;;5.00;99.90;;;;;;5072629;28;20037;-82
2024/01/05 11:03:14;;;;;;;16.25;8.38;;;4.90;99.90;;;;;;5073394;28;20046;-84
2024/01/05 11:05:44;;;;;;;15.10;8.77;;;5.00;99.90;;;;;;5087989;28;20056;-78
2024/01/05 11:08:22;;;;;;;17.35;9.30;;;5.80;99.90;;;;;;5092437;28;20037;-86
2024/01/05 11:11:19;;;;;;;15.73;8.85;;;5.10;99.90;;;;;;5098639;28;20115;-86
2024/01/05 11:14:04;;;;;;;13.80;8.38;;;5.10;99.90;;;;;;5069376;28;20396;-82
2024/01/05 11:17:06;;;;;;;15.68;8.63;;;5.00;99.90;;;;;;5071956;28;20040;-76
2024/01/05 11:19:50;;;;;;;14.32;8.23;;;5.00;99.90;;;;;;5072406;28;20049;-77
2024/01/05 11:22:27;;;;;;;14.63;7.38;;;5.00;99.90;;;;;;5072150;28;20423;-85
2024/01/05 11:24:57;;;;;;;12.52;7.80;;;5.00;99.90;;;;;;5072231;28;20639;-86
2024/01/05 11:27:33;;;;;;;13.75;7.35;;;5.00;99.90;;;;;;5071361;28;20062;-88
2024/01/05 11:29:59;;;;;;;13.40;7.28;;;5.10;99.90;;;;;;5071184;28;20131;-86
2024/01/05 11:32:42;;;;;;;14.55;7.85;;;5.10;99.90;;;;;;5071737;28;20434;-87
2024/01/05 11:35:17;;;;;;;13.05;7.72;;;5.20;99.90;;;;;;5070813;28;20087;-79
2024/01/05 11:37:47;;;;;;;15.82;8.85;;;5.10;99.90;;;;;;5071549;28;20052;-81
2024/01/05 11:40:31;;;;;;;14.60;7.90;;;5.20;99.90;;;;;;5069610;28;20119;-77
2024/01/05 11:42:57;;;;;;;14.05;8.15;;;5.70;99.90;;;;;;5066065;28;20052;-77
2024/01/05 11:45:41;;;;;;;13.55;7.80;;;5.10;99.90;;;;;;5070497;28;20402;-82
2024/01/05 11:48:07;;;;;;;13.13;7.53;;;5.20;99.90;;;;;;5069391;28;20145;-82
2024/01/05 11:50:34;;;;;;;14.57;7.90;;;5.20;99.90;;;;;;5069932;28;20040;-82
2024/01/05 11:53:22;;;;;;;15.30;8.30;;;5.20;99.90;;;;;;5070507;28;20052;-82
2024/01/05 11:55:49;;;;;;;14.02;7.78;;;5.20;99.90;;;;;;5071463;28;20040;-82
2024/01/05 11:58:28;;;;;;;12.95;7.22;;;5.20;99.90;;;;;;5067869;28;20048;-82
2024/01/05 12:00:56;;;;;;;13.70;7.65;;;5.10;99.90;;;;;;5067630;28;20466;-82
2024/01/05 12:03:24;;;;;;;14.10;7.45;;;5.20;99.90;;;;;;5067076;28;20060;-82
2024/01/05 12:05:58;;;;;;;13.68;8.27;;;5.20;99.90;;;;;;5068155;28;20131;-84
2024/01/05 12:08:24;;;;;;;14.50;8.27;;;5.20;99.90;;;;;;5067222;28;20044;-87
2024/01/05 12:10:55;;;;;;;15.00;8.50;;;5.30;99.90;;;;;;5069835;28;20048;-87
2024/01/05 12:13:33;;;;;;;13.65;8.05;;;5.60;99.90;;;;;;5069770;28;20052;-88
2024/01/05 12:16:00;;;;;;;15.15;8.57;;;5.30;99.90;;;;;;5084686;28;20036;-89
2024/01/05 12:18:30;;;;;;;15.13;8.30;;;5.40;99.90;;;;;;5060023;28;20202;-90
2024/01/05 12:21:03;;;;;;;14.30;7.20;;;5.90;99.90;;;;;;5072274;28;20059;-83
2024/01/05 12:23:30;;;;;;;12.80;7.55;;;5.50;99.90;;;;;;5071095;28;20046;-84
2024/01/05 12:26:03;;;;;;;14.48;8.25;;;5.40;99.90;;;;;;5071685;28;20045;-84
2024/01/05 12:28:37;;;;;;;13.80;8.18;;;5.40;99.90;;;;;;5071106;28;20049;-84
2024/01/05 12:31:04;;;;;;;15.93;8.20;;;5.40;99.90;;;;;;5071022;28;20404;-83
2024/01/05 12:33:33;;;;;;;15.35;8.02;;;5.40;99.90;;;;;;5071236;28;20051;-86
2024/01/05 12:35:59;;;;;;;13.75;8.63;;;5.90;99.90;;;;;;5070185;28;20400;-83
2024/01/05 12:38:28;;;;;;;13.85;8.40;;;5.40;99.90;;;;;;5071549;28;20044;-82
2024/01/05 12:41:14;;;;;;;16.38;8.23;;;5.40;99.90;;;;;;5071551;28;20084;-85
2024/01/05 12:43:49;;;;;;;15.93;8.85;;;5.60;99.90;;;;;;5055699;28;20040;-82
2024/01/05 12:46:19;;;;;;;14.15;8.38;;;5.40;99.90;;;;;;5072703;28;20079;-89
2024/01/05 12:48:45;;;;;;;17.88;9.32;;;5.30;99.90;;;;;;5071651;28;20052;-82
2024/01/05 12:51:19;;;;;;;17.42;9.13;;;5.40;99.90;;;;;;5070657;28;20094;-80
2024/01/05 12:53:49;;;;;;;18.15;8.88;;;5.40;99.90;;;;;;5075722;28;20044;-79